Time;durP1;ratioP1;P1;durP2;ratioP2;P2;SDS_P1;SDS_P2;PMS_P1;PMS_P2;Temp;Humidity;BMP_temperature;BMP_pressure;BME280_temperature;BME280_humidity;BME280_pressure;Samples;Min_cycle;Max_cycle;Signal;HPM_P1;HPM_P2
2023/10/17 00:01:48;;;;;;;30.27;16.67;;;;;;;;;;4983162;28;20751;-77
2023/10/17 00:06:48;;;;;;;31.50;19.63;;;;;;;;;;4949835;28;20037;-77
2023/10/17 00:09:26;;;;;;;30.08;19.40;;;;;;;;;;4946465;28;20793;-76
2023/10/17 00:14:23;;;;;;;29.88;18.17;;;;;;;;;;4950099;28;20030;-77
2023/10/17 00:16:50;;;;;;;28.33;17.70;;;;;;;;;;4954484;28;20093;-77
2023/10/17 00:19:18;;;;;;;26.52;15.15;;;;;;;;;;4946286;28;20049;-77
2023/10/17 00:21:45;;;;;;;21.35;12.50;;;;;;;;;;4951236;28;20351;-78
2023/10/17 00:24:11;;;;;;;18.40;9.32;;;;;;;;;;4965355;28;20026;-76
2023/10/17 00:26:38;;;;;;;17.70;7.75;;;;;;;;;;4950517;28;20048;-79
2023/10/17 00:29:07;;;;;;;16.33;7.00;;;;;;;;;;4954899;28;20290;-77
2023/10/17 00:31:33;;;;;;;14.30;6.28;;;;;;;;;;4949353;28;20030;-77
2023/10/17 00:34:00;;;;;;;14.60;6.25;;;;;;;;;;4963363;28;20030;-77
2023/10/17 00:36:27;;;;;;;13.93;5.68;;;;;;;;;;4951804;28;20037;-77
2023/10/17 00:39:11;;;;;;;12.70;5.15;;;;;;;;;;4963742;28;20440;-77
2023/10/17 00:44:36;;;;;;;13.95;5.85;;;;;;;;;;4996331;28;20476;-77
2023/10/17 00:47:04;;;;;;;12.05;4.30;;;;;;;;;;4982235;28;20026;-77
2023/10/17 00:49:37;;;;;;;11.50;4.20;;;;;;;;;;4986034;28;20436;-77
2023/10/17 00:52:04;;;;;;;11.82;5.03;;;;;;;;;;4980210;28;20026;-79
2023/10/17 00:54:35;;;;;;;14.27;5.25;;;;;;;;;;5000519;28;20668;-77
2023/10/17 00:57:05;;;;;;;12.85;4.82;;;;;;;;;;5004320;28;20514;-77
2023/10/17 00:59:32;;;;;;;14.07;5.80;;;;;;;;;;4988408;28;20022;-77
2023/10/17 01:02:06;;;;;;;12.27;5.20;;;;;;;;;;4987541;28;20030;-77
2023/10/17 01:04:33;;;;;;;12.57;4.25;;;;;;;;;;4987731;28;20014;-77
2023/10/17 01:07:06;;;;;;;12.85;3.92;;;;;;;;;;4989675;28;20034;-76
2023/10/17 01:09:35;;;;;;;10.23;3.90;;;;;;;;;;4981237;28;20299;-77
2023/10/17 01:12:08;;;;;;;12.63;3.90;;;;;;;;;;4983813;28;20171;-77
2023/10/17 01:14:35;;;;;;;10.23;3.50;;;;;;;;;;4988300;28;20021;-77
2023/10/17 01:17:05;;;;;;;8.57;3.15;;;;;;;;;;4988683;28;20500;-77
2023/10/17 01:19:33;;;;;;;10.63;3.13;;;;;;;;;;4986619;28;20532;-77
2023/10/17 01:21:59;;;;;;;10.13;3.28;;;;;;;;;;4988876;28;20029;-77
2023/10/17 01:24:26;;;;;;;9.63;3.38;;;;;;;;;;4982342;28;20104;-77
2023/10/17 01:26:52;;;;;;;10.70;2.92;;;;;;;;;;4981837;28;20345;-77
2023/10/17 01:29:21;;;;;;;9.85;3.58;;;;;;;;;;4982028;28;20048;-77
2023/10/17 01:31:55;;;;;;;13.10;4.18;;;;;;;;;;4987031;28;20038;-77
2023/10/17 01:34:21;;;;;;;12.05;3.72;;;;;;;;;;4982196;28;20022;-77
2023/10/17 01:36:47;;;;;;;14.73;3.45;;;;;;;;;;4987626;28;20176;-77
2023/10/17 01:39:13;;;;;;;11.90;3.83;;;;;;;;;;4980401;28;20076;-77
2023/10/17 01:41:46;;;;;;;9.65;2.83;;;;;;;;;;4987475;28;20026;-77
2023/10/17 01:44:12;;;;;;;7.90;2.63;;;;;;;;;;4982221;28;20125;-76
2023/10/17 01:46:38;;;;;;;10.20;4.00;;;;;;;;;;4987550;28;20041;-76
2023/10/17 01:49:12;;;;;;;10.30;3.33;;;;;;;;;;4985781;28;20591;-77
2023/10/17 01:51:48;;;;;;;9.25;3.38;;;;;;;;;;4987516;28;20068;-77
2023/10/17 01:54:14;;;;;;;9.43;3.22;;;;;;;;;;4984931;28;20668;-77
2023/10/17 01:56:47;;;;;;;9.73;3.38;;;;;;;;;;5001115;28;20194;-77
2023/10/17 01:59:13;;;;;;;7.80;2.67;;;;;;;;;;4984250;28;20135;-76
2023/10/17 02:01:43;;;;;;;10.57;2.60;;;;;;;;;;4984867;28;20548;-77
2023/10/17 02:04:18;;;;;;;10.25;3.03;;;;;;;;;;4997447;28;20018;-79
2023/10/17 02:06:44;;;;;;;10.75;2.97;;;;;;;;;;4984731;28;20029;-79
2023/10/17 02:11:56;;;;;;;8.70;2.53;;;;;;;;;;4985666;28;20069;-77
2023/10/17 02:14:23;;;;;;;9.02;2.78;;;;;;;;;;4981397;28;20099;-79
2023/10/17 02:16:49;;;;;;;10.02;3.70;;;;;;;;;;4984855;28;20393;-77
2023/10/17 02:19:16;;;;;;;13.65;4.78;;;;;;;;;;4984638;28;20091;-77
2023/10/17 02:21:49;;;;;;;14.52;5.45;;;;;;;;;;4992967;28;20088;-77
2023/10/17 02:24:19;;;;;;;10.75;4.38;;;;;;;;;;4985695;28;20098;-78
2023/10/17 02:27:21;;;;;;;14.10;5.13;;;;;;;;;;4986805;28;20117;-79
2023/10/17 02:29:44;;;;;;;16.23;5.85;;;;;;;;;;4989268;28;20157;-79
2023/10/17 02:32:13;;;;;;;15.88;5.90;;;;;;;;;;4985578;28;20936;-78
2023/10/17 02:34:46;;;;;;;13.88;5.53;;;;;;;;;;5006195;28;20034;-78
2023/10/17 02:37:17;;;;;;;14.35;5.35;;;;;;;;;;4985160;28;20283;-78
2023/10/17 02:39:43;;;;;;;11.38;4.80;;;;;;;;;;4990151;28;20261;-77
2023/10/17 02:42:10;;;;;;;13.00;5.05;;;;;;;;;;4988909;28;20038;-77
2023/10/17 02:44:40;;;;;;;13.77;5.05;;;;;;;;;;4995512;28;20428;-77
2023/10/17 02:47:12;;;;;;;12.15;4.90;;;;;;;;;;4985997;28;20388;-77
2023/10/17 02:49:39;;;;;;;11.77;4.53;;;;;;;;;;4990588;28;20026;-77
2023/10/17 02:52:06;;;;;;;10.32;4.05;;;;;;;;;;4989399;28;20033;-77
2023/10/17 02:57:18;;;;;;;12.25;4.20;;;;;;;;;;4991050;28;20048;-77
2023/10/17 02:59:45;;;;;;;10.68;4.28;;;;;;;;;;4983590;28;20326;-77
2023/10/17 03:02:12;;;;;;;11.45;4.10;;;;;;;;;;4985087;28;20423;-77
2023/10/17 03:04:42;;;;;;;13.27;3.95;;;;;;;;;;4981097;28;20237;-77
2023/10/17 03:07:11;;;;;;;12.07;4.35;;;;;;;;;;4999631;28;20345;-78
2023/10/17 03:09:39;;;;;;;13.43;4.85;;;;;;;;;;4991448;28;20025;-77
2023/10/17 03:17:08;;;;;;;12.68;4.85;;;;;;;;;;4986776;28;20026;-77
2023/10/17 03:19:34;;;;;;;10.23;4.30;;;;;;;;;;4986833;28;20591;-78
2023/10/17 03:22:18;;;;;;;11.50;4.47;;;;;;;;;;4987875;28;20495;-77
2023/10/17 03:24:44;;;;;;;13.23;4.22;;;;;;;;;;4991000;28;20109;-78
2023/10/17 03:27:56;;;;;;;12.48;4.18;;;;;;;;;;4991385;28;20041;-78
2023/10/17 03:30:05;;;;;;;11.95;4.80;;;;;;;;;;4988963;28;20041;-78
2023/10/17 03:32:33;;;;;;;14.00;4.55;;;;;;;;;;4990816;28;20053;-78
2023/10/17 03:35:02;;;;;;;14.43;5.03;;;;;;;;;;4988302;28;20033;-78
2023/10/17 03:37:29;;;;;;;12.05;3.72;;;;;;;;;;4984022;28;20470;-78
2023/10/17 03:42:55;;;;;;;12.85;4.18;;;;;;;;;;4989085;28;20063;-77
2023/10/17 03:47:53;;;;;;;13.43;4.70;;;;;;;;;;4993128;28;20049;-77
2023/10/17 03:50:32;;;;;;;13.70;4.45;;;;;;;;;;4984556;28;20348;-77
2023/10/17 03:53:04;;;;;;;11.85;4.47;;;;;;;;;;4991951;28;20801;-77
2023/10/17 03:55:32;;;;;;;15.05;5.22;;;;;;;;;;4987751;28;20100;-77
2023/10/17 03:57:59;;;;;;;13.38;5.35;;;;;;;;;;4985378;28;20048;-77
2023/10/17 04:00:28;;;;;;;12.02;4.68;;;;;;;;;;4984167;28;20260;-79
2023/10/17 04:02:54;;;;;;;12.43;4.70;;;;;;;;;;4985903;28;20141;-77
2023/10/17 04:05:23;;;;;;;16.17;4.88;;;;;;;;;;4984527;28;20030;-77
2023/10/17 04:07:52;;;;;;;10.60;4.03;;;;;;;;;;4989674;28;20030;-77
2023/10/17 04:10:22;;;;;;;11.40;3.95;;;;;;;;;;4989294;28;20031;-77
2023/10/17 04:12:49;;;;;;;13.88;4.20;;;;;;;;;;4988957;28;20447;-77
2023/10/17 04:15:18;;;;;;;12.80;4.60;;;;;;;;;;4988595;28;20203;-77
2023/10/17 04:17:46;;;;;;;13.20;5.25;;;;;;;;;;4983253;28;20072;-77
2023/10/17 04:20:13;;;;;;;12.77;5.88;;;;;;;;;;4985890;28;20103;-74
2023/10/17 04:22:43;;;;;;;13.45;5.93;;;;;;;;;;4989197;28;20455;-73
2023/10/17 04:25:43;;;;;;;14.68;5.72;;;;;;;;;;4997573;28;20074;-73
2023/10/17 04:28:02;;;;;;;15.80;5.78;;;;;;;;;;4985606;28;20771;-75
2023/10/17 04:30:46;;;;;;;14.43;4.90;;;;;;;;;;4980338;28;20576;-73
2023/10/17 04:33:19;;;;;;;11.73;4.85;;;;;;;;;;4988236;28;20092;-74
2023/10/17 04:35:55;;;;;;;15.93;5.90;;;;;;;;;;5002240;28;20257;-75
2023/10/17 04:38:36;;;;;;;11.30;5.00;;;;;;;;;;4983760;28;20034;-75
2023/10/17 04:41:30;;;;;;;14.50;5.35;;;;;;;;;;4991542;28;20522;-76
2023/10/17 04:44:02;;;;;;;12.40;5.20;;;;;;;;;;4985621;28;20342;-74
2023/10/17 04:46:29;;;;;;;10.93;4.35;;;;;;;;;;4984993;28;20065;-77
2023/10/17 04:49:06;;;;;;;10.02;4.10;;;;;;;;;;4988688;28;20145;-76
2023/10/17 04:51:38;;;;;;;11.00;4.57;;;;;;;;;;4989504;28;20722;-77
2023/10/17 04:54:22;;;;;;;16.80;5.97;;;;;;;;;;4989923;28;20039;-77
2023/10/17 04:57:02;;;;;;;11.95;4.95;;;;;;;;;;4985455;28;20036;-77
2023/10/17 05:00:25;;;;;;;13.20;5.68;;;;;;;;;;4982616;28;20030;-77
2023/10/17 05:08:11;;;;;;;13.02;4.35;;;;;;;;;;4985002;28;20030;-76
2023/10/17 06:18:58;;;;;;;10.27;3.47;;;;;;;;;;4984808;28;20061;-77
2023/10/17 06:21:35;;;;;;;8.48;3.30;;;;;;;;;;4997898;28;20053;-77
2023/10/17 06:26:47;;;;;;;9.30;3.05;;;;;;;;;;4987111;28;20140;-77
2023/10/17 06:34:16;;;;;;;8.73;3.67;;;;;;;;;;4983075;28;20041;-76
2023/10/17 06:36:43;;;;;;;10.35;3.75;;;;;;;;;;4986318;28;20038;-77
2023/10/17 06:39:24;;;;;;;8.05;3.33;;;;;;;;;;4985314;28;20135;-77
2023/10/17 06:42:13;;;;;;;13.18;5.28;;;;;;;;;;4981328;28;20045;-76
2023/10/17 06:44:51;;;;;;;13.15;4.18;;;;;;;;;;4987434;28;20034;-77
2023/10/17 06:47:18;;;;;;;24.85;5.65;;;;;;;;;;4981586;28;20065;-77
2023/10/17 06:54:43;;;;;;;10.10;3.85;;;;;;;;;;4988753;28;20771;-77
2023/10/17 06:57:33;;;;;;;12.15;4.88;;;;;;;;;;4983883;28;20417;-77
2023/10/17 07:02:56;;;;;;;15.52;5.10;;;;;;;;;;4980498;28;20045;-77
2023/10/17 07:05:23;;;;;;;11.73;5.03;;;;;;;;;;4985572;28;20350;-77
2023/10/17 07:07:52;;;;;;;14.98;5.47;;;;;;;;;;4985591;28;20363;-78
2023/10/17 07:13:17;;;;;;;11.55;3.88;;;;;;;;;;4987933;28;20077;-77
2023/10/17 07:15:43;;;;;;;11.65;3.78;;;;;;;;;;4988024;28;20486;-77
2023/10/17 07:21:15;;;;;;;12.07;4.28;;;;;;;;;;4986518;28;20057;-77
2023/10/17 07:23:42;;;;;;;14.70;5.78;;;;;;;;;;4992214;28;20030;-77
2023/10/17 07:26:23;;;;;;;16.98;5.80;;;;;;;;;;4989176;28;20029;-77
2023/10/17 07:28:50;;;;;;;20.92;6.85;;;;;;;;;;4990489;28;20147;-77
2023/10/17 07:31:16;;;;;;;16.95;6.85;;;;;;;;;;4986706;28;20117;-77
2023/10/17 07:33:43;;;;;;;19.85;8.02;;;;;;;;;;4989560;28;20202;-77
2023/10/17 07:36:15;;;;;;;16.55;6.65;;;;;;;;;;5005053;28;20037;-77
2023/10/17 07:38:44;;;;;;;18.00;7.15;;;;;;;;;;4989928;28;20045;-77
2023/10/17 07:41:14;;;;;;;13.73;5.75;;;;;;;;;;4988210;28;20045;-77
2023/10/17 07:43:44;;;;;;;15.02;6.43;;;;;;;;;;4990585;28;20033;-77
2023/10/17 07:46:18;;;;;;;17.25;6.75;;;;;;;;;;4987690;28;20112;-78
2023/10/17 07:48:48;;;;;;;19.63;10.57;;;;;;;;;;4988409;28;20409;-77
2023/10/17 07:51:15;;;;;;;28.42;15.18;;;;;;;;;;4989279;28;20041;-77
2023/10/17 07:53:47;;;;;;;36.60;22.48;;;;;;;;;;4992739;28;20250;-77
2023/10/17 07:56:20;;;;;;;38.10;24.17;;;;;;;;;;4990169;28;20061;-77
2023/10/17 07:59:04;;;;;;;34.90;24.02;;;;;;;;;;4989587;28;20480;-77
2023/10/17 08:01:57;;;;;;;32.75;21.42;;;;;;;;;;4985227;28;20034;-77
2023/10/17 08:04:24;;;;;;;31.15;16.92;;;;;;;;;;4990167;28;20167;-77
2023/10/17 08:06:51;;;;;;;30.65;18.75;;;;;;;;;;4989765;28;20026;-77
2023/10/17 08:11:52;;;;;;;22.88;12.02;;;;;;;;;;4994319;28;20452;-76
2023/10/17 08:14:34;;;;;;;18.98;10.48;;;;;;;;;;4989309;28;20155;-77
2023/10/17 08:17:00;;;;;;;19.67;10.90;;;;;;;;;;4988238;28;20030;-77
2023/10/17 08:19:29;;;;;;;22.27;10.13;;;;;;;;;;4986498;28;20770;-77
2023/10/17 08:30:23;;;;;;;36.10;19.60;;;;;;;;;;4988012;28;20578;-78
2023/10/17 08:33:11;;;;;;;34.33;17.67;;;;;;;;;;5005502;28;20025;-78
2023/10/17 08:35:40;;;;;;;29.35;15.35;;;;;;;;;;4990595;28;20532;-78
2023/10/17 08:38:08;;;;;;;27.45;12.07;;;;;;;;;;4988886;28;20141;-78
2023/10/17 08:43:10;;;;;;;19.65;9.27;;;;;;;;;;4989372;28;20033;-77
2023/10/17 08:45:38;;;;;;;19.52;8.15;;;;;;;;;;4988000;28;20461;-79
2023/10/17 08:48:11;;;;;;;19.80;8.73;;;;;;;;;;4989439;28;20476;-78
2023/10/17 08:50:37;;;;;;;18.98;7.65;;;;;;;;;;4989390;28;20042;-78
2023/10/17 08:53:07;;;;;;;19.38;8.60;;;;;;;;;;4988746;28;20029;-76
2023/10/17 08:55:33;;;;;;;19.23;8.70;;;;;;;;;;4986031;28;20643;-76
2023/10/17 08:57:59;;;;;;;18.75;7.43;;;;;;;;;;4993439;28;20092;-78
2023/10/17 09:03:23;;;;;;;17.88;8.45;;;;;;;;;;4986037;28;20500;-77
2023/10/17 09:06:07;;;;;;;18.42;9.98;;;;;;;;;;5002001;28;20030;-77
2023/10/17 09:11:25;;;;;;;19.30;10.55;;;;;;;;;;4988114;28;20495;-77
2023/10/17 09:16:40;;;;;;;21.63;8.93;;;;;;;;;;4989285;28;19944;-77
2023/10/17 09:19:10;;;;;;;20.58;8.40;;;;;;;;;;4986455;28;20038;-77
2023/10/17 09:21:41;;;;;;;19.35;8.70;;;;;;;;;;4983135;28;20304;-77
2023/10/17 09:24:29;;;;;;;17.38;7.10;;;;;;;;;;4982919;28;20095;-76
2023/10/17 09:26:56;;;;;;;18.02;6.55;;;;;;;;;;4987993;28;20546;-77
2023/10/17 09:29:22;;;;;;;17.55;6.70;;;;;;;;;;4985035;28;20029;-76
2023/10/17 09:31:50;;;;;;;18.67;6.47;;;;;;;;;;4989145;28;20241;-78
2023/10/17 09:34:17;;;;;;;15.95;6.85;;;;;;;;;;4988386;28;20029;-77
2023/10/17 09:36:46;;;;;;;20.80;6.90;;;;;;;;;;4991028;28;20037;-77
2023/10/17 09:39:18;;;;;;;16.63;6.32;;;;;;;;;;4983573;28;20034;-77
2023/10/17 09:41:44;;;;;;;16.08;6.25;;;;;;;;;;4989307;28;20021;-76
2023/10/17 09:44:12;;;;;;;17.58;6.72;;;;;;;;;;4984222;28;20490;-76
2023/10/17 09:46:39;;;;;;;16.10;5.30;;;;;;;;;;4990482;28;20476;-78
2023/10/17 09:49:08;;;;;;;16.38;5.18;;;;;;;;;;5000069;28;20116;-79
2023/10/17 09:51:35;;;;;;;15.38;5.03;;;;;;;;;;4989162;28;20106;-77
2023/10/17 09:54:04;;;;;;;15.07;4.90;;;;;;;;;;5001217;28;20069;-77
2023/10/17 09:56:41;;;;;;;17.83;5.47;;;;;;;;;;4982528;28;20030;-76
2023/10/17 09:59:27;;;;;;;16.25;4.78;;;;;;;;;;4988344;28;20029;-76
2023/10/17 10:01:54;;;;;;;16.52;4.70;;;;;;;;;;4986219;28;20030;-77
2023/10/17 10:04:20;;;;;;;15.88;5.72;;;;;;;;;;4989545;28;20025;-78
2023/10/17 10:06:47;;;;;;;16.75;5.03;;;;;;;;;;4986544;28;20073;-77
2023/10/17 10:09:26;;;;;;;15.60;4.78;;;;;;;;;;4984106;28;20429;-77
2023/10/17 10:11:52;;;;;;;15.90;4.55;;;;;;;;;;4991225;28;20053;-76
2023/10/17 10:14:24;;;;;;;13.63;4.43;;;;;;;;;;4986657;28;20484;-78
2023/10/17 10:16:54;;;;;;;14.57;4.60;;;;;;;;;;4989220;28;20042;-77
2023/10/17 10:19:21;;;;;;;15.77;4.95;;;;;;;;;;4985895;28;20141;-77
2023/10/17 10:22:00;;;;;;;18.15;6.82;;;;;;;;;;4986888;28;20144;-77
2023/10/17 10:24:31;;;;;;;17.83;9.18;;;;;;;;;;4984280;28;20641;-77
2023/10/17 10:27:09;;;;;;;21.25;7.28;;;;;;;;;;4985318;28;20211;-77
2023/10/17 10:29:35;;;;;;;16.83;6.63;;;;;;;;;;4986256;28;20065;-77
2023/10/17 10:32:05;;;;;;;15.98;5.38;;;;;;;;;;4985207;28;20037;-77
2023/10/17 10:34:39;;;;;;;13.88;3.70;;;;;;;;;;4987343;28;20478;-77
2023/10/17 10:37:08;;;;;;;18.02;3.97;;;;;;;;;;4984903;28;20029;-77
2023/10/17 10:39:35;;;;;;;13.38;4.00;;;;;;;;;;4986898;28;20411;-76
2023/10/17 10:42:02;;;;;;;14.60;4.03;;;;;;;;;;4993256;28;20356;-77
2023/10/17 10:44:28;;;;;;;11.13;3.40;;;;;;;;;;4985167;28;20030;-77
2023/10/17 10:46:54;;;;;;;12.10;3.60;;;;;;;;;;4988216;28;20476;-77
2023/10/17 10:49:30;;;;;;;12.57;3.33;;;;;;;;;;4986241;28;20238;-77
2023/10/17 10:51:58;;;;;;;13.40;3.70;;;;;;;;;;4984326;28;20218;-77
2023/10/17 10:54:43;;;;;;;16.50;7.72;;;;;;;;;;4981193;28;20037;-77
2023/10/17 10:57:09;;;;;;;27.63;18.77;;;;;;;;;;4984798;28;20033;-77
2023/10/17 10:59:35;;;;;;;32.67;24.40;;;;;;;;;;4989198;28;20136;-77
2023/10/17 11:02:01;;;;;;;26.92;18.08;;;;;;;;;;4990252;28;20546;-77
2023/10/17 11:04:29;;;;;;;29.40;21.25;;;;;;;;;;4987126;28;20087;-78
2023/10/17 11:06:55;;;;;;;26.15;17.25;;;;;;;;;;4990660;28;20025;-78
2023/10/17 11:09:24;;;;;;;16.48;8.75;;;;;;;;;;4989585;28;20072;-77
2023/10/17 11:11:53;;;;;;;12.98;5.30;;;;;;;;;;5002912;28;20093;-77
2023/10/17 11:14:19;;;;;;;12.88;4.30;;;;;;;;;;4987421;28;20831;-77
2023/10/17 11:16:50;;;;;;;11.32;4.22;;;;;;;;;;4992773;28;20064;-78
2023/10/17 11:19:19;;;;;;;12.85;3.88;;;;;;;;;;4987857;28;20107;-77
2023/10/17 11:21:46;;;;;;;13.90;4.25;;;;;;;;;;4994217;28;20040;-78
2023/10/17 11:24:13;;;;;;;13.82;3.92;;;;;;;;;;4988683;28;20484;-78
2023/10/17 11:26:40;;;;;;;14.65;4.60;;;;;;;;;;4990787;28;20128;-77
2023/10/17 11:29:07;;;;;;;13.45;4.00;;;;;;;;;;4987809;28;20041;-80
2023/10/17 11:31:34;;;;;;;13.38;4.75;;;;;;;;;;5004950;28;20460;-78
2023/10/17 11:34:04;;;;;;;17.70;8.63;;;;;;;;;;4989052;28;20033;-77
2023/10/17 11:36:36;;;;;;;19.83;10.65;;;;;;;;;;4986154;28;20121;-77
2023/10/17 11:39:07;;;;;;;12.77;5.82;;;;;;;;;;4988143;28;20030;-77
2023/10/17 11:41:45;;;;;;;13.32;5.85;;;;;;;;;;4990808;28;20030;-79
2023/10/17 11:44:13;;;;;;;11.07;3.97;;;;;;;;;;4988038;28;20491;-78
2023/10/17 11:46:39;;;;;;;13.18;4.20;;;;;;;;;;4992043;28;20037;-78
2023/10/17 11:49:21;;;;;;;12.02;4.15;;;;;;;;;;4988069;28;20092;-77
2023/10/17 11:51:57;;;;;;;12.93;4.30;;;;;;;;;;5005306;28;20187;-76
2023/10/17 11:54:24;;;;;;;14.18;4.45;;;;;;;;;;4988853;28;20680;-78
2023/10/17 11:56:50;;;;;;;13.52;4.10;;;;;;;;;;4991959;28;20715;-78
2023/10/17 11:59:20;;;;;;;14.13;4.88;;;;;;;;;;4992208;28;20034;-79
2023/10/17 12:01:46;;;;;;;11.80;4.18;;;;;;;;;;4984974;28;20107;-77
2023/10/17 12:04:16;;;;;;;13.43;4.40;;;;;;;;;;4984869;28;20479;-79
2023/10/17 12:06:44;;;;;;;13.43;5.82;;;;;;;;;;4990606;28;20456;-77
2023/10/17 12:09:22;;;;;;;15.82;4.72;;;;;;;;;;4985942;28;20056;-78
2023/10/17 12:11:49;;;;;;;11.77;4.30;;;;;;;;;;4989447;28;20030;-78
2023/10/17 12:14:19;;;;;;;12.45;4.68;;;;;;;;;;5001526;28;20661;-78
2023/10/17 12:16:49;;;;;;;12.95;4.03;;;;;;;;;;5000088;28;20408;-78
2023/10/17 12:19:17;;;;;;;11.65;4.00;;;;;;;;;;5001205;28;20144;-78
2023/10/17 12:21:48;;;;;;;13.35;4.32;;;;;;;;;;4991318;28;20040;-78
2023/10/17 12:24:19;;;;;;;16.23;6.03;;;;;;;;;;4986768;28;20511;-76
2023/10/17 12:26:45;;;;;;;12.50;6.13;;;;;;;;;;4988638;28;20267;-77
2023/10/17 12:29:12;;;;;;;13.73;5.60;;;;;;;;;;4989804;28;20030;-77
2023/10/17 12:31:39;;;;;;;14.13;4.68;;;;;;;;;;5005348;28;20041;-76
2023/10/17 12:34:09;;;;;;;13.43;4.25;;;;;;;;;;4987919;28;20026;-76
2023/10/17 12:36:38;;;;;;;13.38;5.20;;;;;;;;;;4984558;28;20017;-76
2023/10/17 12:39:08;;;;;;;15.25;4.38;;;;;;;;;;4988230;28;20460;-76
2023/10/17 12:41:35;;;;;;;10.90;4.15;;;;;;;;;;4985724;28;20041;-76
2023/10/17 12:44:01;;;;;;;13.95;4.22;;;;;;;;;;4986810;28;20023;-76
2023/10/17 12:46:27;;;;;;;12.48;3.60;;;;;;;;;;4984696;28;20041;-75
2023/10/17 12:48:54;;;;;;;10.77;3.65;;;;;;;;;;4983545;28;20559;-74
2023/10/17 12:51:27;;;;;;;9.70;3.35;;;;;;;;;;4985872;28;20057;-76
2023/10/17 12:53:54;;;;;;;11.93;3.92;;;;;;;;;;4986820;28;20135;-75
2023/10/17 12:56:20;;;;;;;10.60;3.72;;;;;;;;;;4984648;28;20030;-75
2023/10/17 12:58:47;;;;;;;10.50;3.20;;;;;;;;;;5000508;28;20075;-75
2023/10/17 13:01:13;;;;;;;12.50;3.42;;;;;;;;;;4984993;28;20065;-75
2023/10/17 13:03:39;;;;;;;11.80;3.72;;;;;;;;;;4988217;28;20921;-75
2023/10/17 13:06:06;;;;;;;12.43;3.70;;;;;;;;;;4983325;28;20072;-76
2023/10/17 13:08:33;;;;;;;11.80;3.33;;;;;;;;;;4984382;28;20137;-74
2023/10/17 13:10:59;;;;;;;11.98;3.20;;;;;;;;;;4987238;28;20038;-72
2023/10/17 13:13:26;;;;;;;11.90;3.38;;;;;;;;;;4982872;28;22854;-74
2023/10/17 13:15:54;;;;;;;11.65;3.70;;;;;;;;;;5002388;28;20034;-74
2023/10/17 13:18:21;;;;;;;11.43;3.40;;;;;;;;;;4984729;28;20545;-74
2023/10/17 13:20:50;;;;;;;11.10;3.60;;;;;;;;;;4986860;28;20524;-74
2023/10/17 13:23:16;;;;;;;11.43;3.65;;;;;;;;;;4983831;28;20259;-74
2023/10/17 13:25:49;;;;;;;12.27;3.03;;;;;;;;;;4986910;28;20295;-73
2023/10/17 13:28:19;;;;;;;12.32;3.60;;;;;;;;;;4984396;28;20069;-74
2023/10/17 13:30:45;;;;;;;12.57;3.42;;;;;;;;;;4987308;28;20034;-73
2023/10/17 13:33:12;;;;;;;11.25;3.53;;;;;;;;;;4982548;28;20029;-75
2023/10/17 13:35:41;;;;;;;11.55;3.85;;;;;;;;;;4985074;28;20198;-74
2023/10/17 13:38:09;;;;;;;11.18;3.70;;;;;;;;;;4983222;28;20754;-74
2023/10/17 13:40:35;;;;;;;10.35;3.30;;;;;;;;;;4983867;28;20053;-74
2023/10/17 13:43:01;;;;;;;12.35;3.15;;;;;;;;;;4986468;28;20099;-74
2023/10/17 13:45:28;;;;;;;13.80;3.75;;;;;;;;;;4984383;28;20032;-74
2023/10/17 13:47:55;;;;;;;14.55;4.38;;;;;;;;;;4982020;28;20038;-74
2023/10/17 13:50:21;;;;;;;11.38;3.70;;;;;;;;;;4979888;28;20618;-75
2023/10/17 13:52:48;;;;;;;12.93;3.72;;;;;;;;;;4985468;28;20374;-75
2023/10/17 13:55:23;;;;;;;11.15;3.28;;;;;;;;;;4982455;28;20487;-75
2023/10/17 13:57:49;;;;;;;;;;;;;;;;;;4988910;28;20598;-75
2023/10/17 14:00:19;;;;;;;12.88;3.42;;;;;;;;;;4981667;28;19960;-76
2023/10/17 14:02:49;;;;;;;12.63;3.50;;;;;;;;;;4984769;28;20026;-75
2023/10/17 14:05:16;;;;;;;10.90;3.55;;;;;;;;;;4983392;28;20045;-75
2023/10/17 14:07:43;;;;;;;12.93;3.58;;;;;;;;;;4984034;28;20029;-77
2023/10/17 14:10:11;;;;;;;11.52;3.78;;;;;;;;;;4983736;28;20116;-75
2023/10/17 14:12:40;;;;;;;11.13;3.40;;;;;;;;;;4985832;28;20274;-75
2023/10/17 14:15:07;;;;;;;12.00;3.72;;;;;;;;;;4985351;28;20376;-75
2023/10/17 14:17:33;;;;;;;12.85;3.70;;;;;;;;;;4982672;28;20489;-75
2023/10/17 14:20:18;;;;;;;13.85;4.00;;;;;;;;;;4987577;28;20760;-75
2023/10/17 14:22:56;;;;;;;9.95;3.53;;;;;;;;;;4985754;28;20033;-76
2023/10/17 14:26:00;;;;;;;10.85;3.60;;;;;;;;;;4985054;28;20037;-74
2023/10/17 14:28:09;;;;;;;11.43;3.63;;;;;;;;;;4984646;28;20034;-75
2023/10/17 14:30:39;;;;;;;11.80;3.72;;;;;;;;;;4983921;28;20556;-75
2023/10/17 14:33:08;;;;;;;13.20;3.97;;;;;;;;;;4998077;28;20025;-75
2023/10/17 14:35:35;;;;;;;11.75;3.50;;;;;;;;;;4983204;28;20106;-74
2023/10/17 14:38:01;;;;;;;12.45;3.63;;;;;;;;;;4981442;28;20088;-75
2023/10/17 14:40:31;;;;;;;11.52;3.78;;;;;;;;;;4980209;28;20786;-74
2023/10/17 14:42:58;;;;;;;12.32;3.72;;;;;;;;;;4983571;28;20018;-75
2023/10/17 14:45:25;;;;;;;15.35;3.88;;;;;;;;;;4983180;28;20301;-75
2023/10/17 14:47:58;;;;;;;18.73;4.95;;;;;;;;;;4984540;28;20030;-75
2023/10/17 14:50:26;;;;;;;14.90;4.40;;;;;;;;;;4983701;28;20270;-75
2023/10/17 14:52:53;;;;;;;16.05;5.75;;;;;;;;;;4985998;28;20061;-75
2023/10/17 14:55:28;;;;;;;13.52;5.28;;;;;;;;;;4981698;28;20044;-76
2023/10/17 14:57:55;;;;;;;15.52;5.25;;;;;;;;;;4985945;28;20452;-75
2023/10/17 15:00:22;;;;;;;14.05;4.57;;;;;;;;;;4983248;28;20034;-76
2023/10/17 15:02:49;;;;;;;12.45;4.70;;;;;;;;;;4987784;28;20026;-76
2023/10/17 15:05:16;;;;;;;13.38;4.03;;;;;;;;;;4982209;28;20030;-74
2023/10/17 15:07:44;;;;;;;13.80;3.92;;;;;;;;;;4982964;28;20326;-64
2023/10/17 15:10:14;;;;;;;16.25;4.55;;;;;;;;;;4977860;28;20041;-64
2023/10/17 15:12:41;;;;;;;14.60;4.35;;;;;;;;;;4985021;28;20419;-64
2023/10/17 15:15:11;;;;;;;14.05;4.55;;;;;;;;;;4980186;28;20396;-65
2023/10/17 15:17:44;;;;;;;12.30;3.90;;;;;;;;;;4985081;28;20033;-64
2023/10/17 15:20:11;;;;;;;16.23;4.38;;;;;;;;;;4980723;28;20060;-64
2023/10/17 15:22:44;;;;;;;14.25;4.30;;;;;;;;;;4987534;28;20328;-64
2023/10/17 15:25:15;;;;;;;15.73;4.70;;;;;;;;;;4980017;28;20014;-64
2023/10/17 15:27:44;;;;;;;19.67;4.85;;;;;;;;;;4984417;28;20454;-64
2023/10/17 15:30:12;;;;;;;14.98;4.53;;;;;;;;;;4983757;28;20034;-64
2023/10/17 15:32:40;;;;;;;15.23;4.63;;;;;;;;;;4982674;28;20089;-65
2023/10/17 15:35:13;;;;;;;14.18;4.40;;;;;;;;;;4980680;28;20545;-64
2023/10/17 15:37:41;;;;;;;14.43;4.15;;;;;;;;;;4984135;28;20034;-65
2023/10/17 15:40:08;;;;;;;15.68;4.45;;;;;;;;;;4981810;28;20552;-64
2023/10/17 15:42:34;;;;;;;14.60;4.30;;;;;;;;;;4986969;28;20720;-64
2023/10/17 15:45:01;;;;;;;18.33;4.88;;;;;;;;;;4987762;28;20397;-65
2023/10/17 15:47:32;;;;;;;15.45;4.00;;;;;;;;;;4989841;28;20780;-62
2023/10/17 15:49:58;;;;;;;15.75;4.63;;;;;;;;;;4988064;28;20603;-62
2023/10/17 15:52:26;;;;;;;13.57;4.07;;;;;;;;;;4984418;28;20908;-63
2023/10/17 15:54:53;;;;;;;17.73;5.10;;;;;;;;;;4986495;28;20029;-64
2023/10/17 15:57:22;;;;;;;18.95;4.72;;;;;;;;;;4987678;28;20117;-64
2023/10/17 15:59:50;;;;;;;16.08;5.05;;;;;;;;;;4989669;28;20808;-64
2023/10/17 16:02:16;;;;;;;20.83;10.80;;;;;;;;;;4985275;28;20022;-64
2023/10/17 16:04:42;;;;;;;45.05;28.27;;;;;;;;;;4987105;28;20022;-63
2023/10/17 16:07:11;;;;;;;36.35;22.98;;;;;;;;;;4987615;28;20103;-64
2023/10/17 16:09:42;;;;;;;33.17;21.90;;;;;;;;;;4986104;28;20072;-63
2023/10/17 16:12:09;;;;;;;29.92;17.00;;;;;;;;;;4987873;28;20381;-64
2023/10/17 16:14:36;;;;;;;23.38;12.20;;;;;;;;;;4983537;28;20030;-64
2023/10/17 16:17:05;;;;;;;19.35;8.13;;;;;;;;;;4987916;28;20435;-61
2023/10/17 16:19:31;;;;;;;19.52;7.78;;;;;;;;;;4988314;28;20034;-69
2023/10/17 16:24:26;;;;;;;19.15;6.65;;;;;;;;;;4999521;28;22977;-72
2023/10/17 16:26:52;;;;;;;15.38;5.85;;;;;;;;;;5005777;28;20316;-70
2023/10/17 16:29:18;;;;;;;14.85;6.63;;;;;;;;;;4998264;28;20021;-71
2023/10/17 16:31:44;;;;;;;19.00;5.93;;;;;;;;;;5004455;28;20507;-71
2023/10/17 16:34:11;;;;;;;18.40;6.60;;;;;;;;;;5002507;28;20159;-70
2023/10/17 16:36:37;;;;;;;18.00;7.32;;;;;;;;;;5003095;28;20179;-69
2023/10/17 16:39:04;;;;;;;17.15;7.72;;;;;;;;;;5003765;28;20033;-70
2023/10/17 16:41:31;;;;;;;19.52;8.70;;;;;;;;;;5000194;28;20037;-71
2023/10/17 16:43:57;;;;;;;18.33;8.57;;;;;;;;;;5004039;28;20458;-71
2023/10/17 16:46:28;;;;;;;19.85;7.43;;;;;;;;;;4985356;28;20041;-70
2023/10/17 16:48:58;;;;;;;20.90;6.07;;;;;;;;;;5004965;28;20153;-70
2023/10/17 16:51:24;;;;;;;17.58;6.65;;;;;;;;;;5001203;28;20379;-71
2023/10/17 16:53:50;;;;;;;20.10;6.75;;;;;;;;;;5004093;28;20048;-71
2023/10/17 16:56:17;;;;;;;22.38;8.20;;;;;;;;;;4999439;28;20889;-71
2023/10/17 16:58:44;;;;;;;22.60;10.05;;;;;;;;;;5003844;28;20463;-71
2023/10/17 17:01:11;;;;;;;28.00;16.40;;;;;;;;;;4983153;28;20499;-73
2023/10/17 17:03:37;;;;;;;30.88;19.60;;;;;;;;;;4986675;28;20034;-72
2023/10/17 17:06:07;;;;;;;43.28;24.17;;;;;;;;;;5006776;28;20021;-71
2023/10/17 17:08:34;;;;;;;34.85;23.67;;;;;;;;;;5002801;28;20471;-70